Overview Statistics Trail Chart Weather Telemetry Raw packets
 

This is the latest recevied weather packets stored in our database for station/object WX5II-15. If no packets are shown the sender has not sent any weather packets the latest 10 day(s).

<< 6 7 8 9 10 11 12 >>
Time Temp. Humidity Pressure Rain* Wind** Luminosity Snow
1788479065 34.44° C 45% 1001.6 hPa 0 mm - - -
1788478627 35.56° C 44% 1001.6 hPa 0 mm - - -
1788478464 35.56° C 44% 1001.6 hPa 0 mm - - -
1788477864 36.67° C 42% 1001.3 hPa 0 mm - - -
1788477262 37.22° C 42% 1001.3 hPa 0 mm - - -
1788476662 37.78° C 42% 1001 hPa 0 mm - - -
1788476062 38.33° C 41% 1001 hPa 0 mm - - -
1788475461 38.33° C 42% 1001 hPa 0 mm - - -
1788475097 38.89° C 41% 1000.6 hPa 0 mm - - -
1788474860 38.89° C 41% 1000.6 hPa 0 mm - - -
1788474259 39.44° C 41% 1001 hPa 0 mm - - -
1788474257 40° C 40% 1001 hPa 0 mm - - -
1788473660 40° C 40% 1001 hPa 0 mm - - -
1788473538 40.56° C 39% 1000.6 hPa 0 mm - - -
1788473059 40.56° C 39% 1000.6 hPa 0 mm - - -
1788472458 40.56° C 37% 1000.6 hPa 0 mm - - -
1788471858 42.22° C 33% 1000.6 hPa 0 mm - - -
1788471257 42.22° C 31% 1000.6 hPa 0 mm - - -
1788470657 42.78° C 31% 1000.6 hPa 0 mm - - -
1788470372 41.67° C 31% 1001 hPa 0 mm - - -
1788470056 41.67° C 31% 1001 hPa 0 mm - - -
1788469456 41.11° C 35% 1001 hPa 0 mm - - -
1788468855 40.56° C 35% 1001 hPa 0 mm - - -
1788468254 40° C 37% 1001.3 hPa 0 mm - - -
1788467654 40.56° C 37% 1001.3 hPa 0 mm - - -

* Rain latest hour (hover to see other rain measurements)
** Current wind speed in m/s (hover to see current wind gust speed)